createdAt,value
2023-05-01T00:02:36.011Z,80.31
2023-05-01T00:06:48.519Z,80.83
2023-05-01T00:11:05.101Z,80.52
2023-05-01T00:15:17.491Z,80.60
2023-05-01T00:19:29.903Z,81.03
2023-05-01T00:23:42.268Z,82.26
2023-05-01T00:27:55.950Z,81.89
2023-05-01T00:32:08.400Z,82.37
2023-05-01T00:36:21.340Z,82.94
2023-05-01T00:40:33.711Z,82.55
2023-05-01T00:44:46.458Z,82.92
2023-05-01T00:48:59.092Z,83.25
2023-05-01T00:53:12.692Z,83.86
2023-05-01T00:57:25.497Z,84.88
2023-05-01T01:01:38.348Z,84.76
2023-05-01T01:06:28.891Z,84.61
2023-05-01T01:10:57.446Z,84.82
2023-05-01T01:15:38.245Z,84.60
2023-05-01T01:20:31.878Z,84.98
2023-05-01T01:24:59.714Z,84.53
2023-05-01T01:29:28.240Z,84.84
2023-05-01T01:33:49.640Z,84.80
2023-05-01T01:38:22.930Z,84.35
2023-05-01T01:42:49.854Z,84.58
2023-05-01T01:47:07.519Z,84.29
2023-05-01T01:51:22.636Z,83.67
2023-05-01T01:55:37.204Z,83.80
2023-05-01T01:59:51.555Z,83.89
2023-05-01T02:04:06.392Z,84.23
2023-05-01T02:08:21.600Z,84.76
2023-05-01T02:12:34.632Z,85.36
2023-05-01T02:16:47.691Z,85.66
2023-05-01T02:21:01.328Z,85.66
2023-05-01T02:25:15.797Z,85.31
2023-05-01T02:29:28.431Z,85.28
2023-05-01T02:33:41.548Z,85.70
2023-05-01T02:37:54.342Z,86.25
2023-05-01T02:42:10.887Z,86.79
2023-05-01T02:46:26.154Z,87.44
2023-05-01T02:50:43.009Z,88.29
2023-05-01T02:54:57.513Z,88.59
2023-05-01T02:59:09.958Z,88.94
2023-05-01T03:03:22.379Z,89.29
2023-05-01T03:07:35.581Z,88.72
2023-05-01T03:11:48.248Z,88.96
2023-05-01T03:16:00.945Z,88.68
2023-05-01T03:20:13.702Z,89.15
2023-05-01T03:24:26.172Z,89.34
2023-05-01T03:28:38.624Z,88.98
2023-05-01T03:32:52.288Z,89.52
2023-05-01T03:37:10.994Z,88.33
2023-05-01T03:41:23.852Z,88.37
2023-05-01T03:45:44.675Z,87.58
2023-05-01T03:49:57.871Z,87.78
2023-05-01T03:54:10.779Z,88.09
2023-05-01T03:58:44.611Z,87.80
2023-05-01T04:02:57.873Z,87.61
2023-05-01T04:07:10.924Z,87.06
2023-05-01T04:11:23.561Z,86.76
2023-05-01T04:15:35.907Z,86.53
2023-05-01T04:19:48.960Z,85.31
2023-05-01T04:24:01.437Z,84.30
2023-05-01T04:28:14.291Z,82.71
2023-05-01T04:32:26.791Z,81.40
2023-05-01T04:36:39.945Z,78.70
2023-05-01T04:40:52.910Z,78.40
2023-05-01T04:45:05.878Z,77.63
2023-05-01T04:49:24.753Z,77.33
2023-05-01T04:53:37.240Z,76.67
2023-05-01T04:57:52.341Z,75.70
2023-05-01T05:02:04.844Z,74.78
2023-05-01T05:06:17.829Z,73.99
2023-05-01T05:10:30.132Z,73.93
2023-05-01T05:15:12.486Z,73.64
2023-05-01T05:19:24.934Z,72.67
2023-05-01T05:23:37.821Z,72.84
2023-05-01T05:27:51.282Z,72.28
2023-05-01T05:32:03.999Z,71.63
2023-05-01T05:36:16.487Z,70.55
2023-05-01T05:40:29.723Z,69.65
2023-05-01T05:44:43.101Z,69.87
2023-05-01T05:48:56.719Z,69.46
2023-05-01T05:53:10.752Z,68.59
2023-05-01T05:57:24.377Z,68.25
2023-05-01T06:01:38.083Z,68.75
2023-05-01T06:05:50.717Z,69.67
2023-05-01T06:10:05.368Z,70.22
2023-05-01T06:14:20.403Z,70.24
2023-05-01T06:18:32.972Z,69.91
2023-05-01T06:22:47.054Z,70.51
2023-05-01T06:27:22.557Z,70.84
2023-05-01T06:31:37.345Z,68.92
2023-05-01T06:35:52.087Z,67.34
2023-05-01T06:40:08.933Z,64.14
2023-05-01T06:44:22.423Z,61.18
2023-05-01T06:48:34.888Z,60.24
2023-05-01T06:52:47.402Z,58.77
2023-05-01T06:56:59.999Z,56.81
2023-05-01T07:01:12.532Z,54.99
2023-05-01T07:05:24.939Z,53.28
2023-05-01T07:09:37.666Z,52.98
2023-05-01T07:13:50.225Z,50.90
2023-05-01T07:18:03.435Z,48.39
2023-05-01T07:22:16.151Z,49.65
2023-05-01T07:26:28.558Z,50.42
2023-05-01T07:30:40.960Z,49.35
2023-05-01T07:34:53.480Z,47.87
2023-05-01T07:39:06.876Z,46.62
2023-05-01T07:43:19.438Z,47.64
2023-05-01T07:47:31.927Z,46.47
2023-05-01T07:51:45.790Z,46.47
2023-05-01T07:56:09.265Z,45.45
2023-05-01T08:00:21.944Z,43.48
2023-05-01T08:04:34.381Z,46.97
2023-05-01T08:08:46.991Z,45.72
2023-05-01T08:12:59.755Z,43.60
2023-05-01T08:17:12.155Z,42.96
2023-05-01T08:21:24.555Z,46.38
2023-05-01T08:25:36.954Z,45.92
2023-05-01T08:29:50.094Z,46.72
2023-05-01T08:34:02.488Z,45.71
2023-05-01T08:38:14.964Z,44.77
2023-05-01T08:42:28.676Z,44.87
2023-05-01T08:46:45.104Z,43.77
2023-05-01T08:50:59.838Z,43.26
2023-05-01T08:55:16.234Z,40.39
2023-05-01T08:59:30.384Z,42.47
2023-05-01T09:03:44.930Z,40.77
2023-05-01T09:07:59.310Z,41.08
2023-05-01T09:12:27.822Z,43.12
2023-05-01T09:16:40.322Z,40.75
2023-05-01T09:20:52.924Z,40.72
2023-05-01T09:25:05.734Z,43.39
2023-05-01T09:29:41.123Z,41.19
2023-05-01T09:33:58.831Z,40.34
2023-05-01T09:38:11.866Z,40.09
2023-05-01T09:42:24.521Z,38.57
2023-05-01T09:46:44.175Z,40.43
2023-05-01T09:50:56.929Z,40.60
2023-05-01T09:55:19.262Z,41.02
2023-05-01T09:59:34.563Z,42.11
2023-05-01T10:03:55.621Z,41.38
2023-05-01T10:08:10.608Z,40.83
2023-05-01T10:12:28.299Z,43.40
2023-05-01T10:16:40.720Z,46.78
2023-05-01T10:20:53.360Z,45.56
2023-05-01T10:25:12.329Z,45.92
2023-05-01T10:29:28.251Z,47.27
2023-05-01T10:33:42.579Z,48.18
2023-05-01T10:38:00.213Z,48.86
2023-05-01T10:42:15.105Z,49.32
2023-05-01T10:46:28.462Z,49.21
2023-05-01T10:51:18.262Z,48.08
2023-05-01T10:55:37.415Z,47.39
2023-05-01T11:00:02.294Z,46.79
2023-05-01T11:04:20.842Z,47.21
2023-05-01T11:08:35.097Z,46.44
2023-05-01T11:12:47.677Z,45.32
2023-05-01T11:17:00.050Z,46.76
2023-05-01T11:21:12.567Z,44.79
2023-05-01T11:25:31.174Z,43.38
2023-05-01T11:29:45.750Z,44.14
2023-05-01T11:34:01.946Z,42.84
2023-05-01T11:38:19.075Z,45.30
2023-05-01T11:42:31.454Z,46.50
2023-05-01T11:46:44.355Z,45.27
2023-05-01T11:50:56.833Z,45.70
2023-05-01T11:55:10.774Z,47.67
2023-05-01T11:59:23.298Z,47.31
2023-05-01T12:03:42.914Z,45.91
2023-05-01T12:08:16.066Z,45.76
2023-05-01T12:12:28.655Z,47.74
2023-05-01T12:16:41.453Z,47.92
2023-05-01T12:20:55.533Z,46.72
2023-05-01T12:25:08.680Z,47.56
2023-05-01T12:29:21.161Z,47.48
2023-05-01T12:33:33.608Z,45.70
2023-05-01T12:37:47.171Z,45.31
2023-05-01T12:42:00.138Z,46.48
2023-05-01T12:46:16.071Z,48.45
2023-05-01T12:50:28.530Z,49.62
2023-05-01T12:54:45.070Z,50.15
2023-05-01T12:58:58.151Z,50.92
2023-05-01T13:03:10.905Z,50.16
2023-05-01T13:07:23.387Z,45.98
2023-05-01T13:11:36.335Z,45.93
2023-05-01T13:15:48.817Z,48.83
2023-05-01T13:20:04.309Z,46.32
2023-05-01T13:24:16.853Z,48.13
2023-05-01T13:28:29.399Z,45.64
2023-05-01T13:32:42.616Z,44.93
2023-05-01T13:36:59.086Z,47.32
2023-05-01T13:41:15.873Z,47.40
2023-05-01T13:45:28.277Z,51.28
2023-05-01T13:49:42.502Z,52.97
2023-05-01T13:53:56.573Z,52.22
2023-05-01T13:58:09.202Z,53.19
2023-05-01T14:02:27.540Z,52.83
2023-05-01T14:06:47.192Z,54.24
2023-05-01T14:10:59.760Z,59.14
2023-05-01T14:15:13.575Z,61.49
2023-05-01T14:19:26.011Z,61.35
2023-05-01T14:23:42.391Z,61.14
2023-05-01T14:27:56.418Z,63.26
2023-05-01T14:32:09.875Z,65.03
2023-05-01T14:36:22.800Z,66.50
2023-05-01T14:40:35.548Z,66.50
2023-05-01T14:44:47.989Z,67.04
2023-05-01T14:49:01.853Z,66.54
2023-05-01T14:53:14.465Z,67.34
2023-05-01T14:57:29.135Z,68.68
2023-05-01T15:01:41.716Z,70.91
2023-05-01T15:05:54.610Z,73.97
2023-05-01T15:10:07.192Z,77.10
2023-05-01T15:14:19.735Z,78.87
2023-05-01T15:18:32.140Z,78.96
2023-05-01T15:22:45.679Z,81.57
2023-05-01T15:26:59.093Z,79.31
2023-05-01T15:31:11.812Z,78.43
2023-05-01T15:35:24.462Z,77.05
2023-05-01T15:39:37.220Z,76.75
2023-05-01T15:43:49.749Z,76.58
2023-05-01T15:48:03.186Z,76.08
2023-05-01T15:52:15.685Z,75.28
2023-05-01T15:56:28.518Z,75.12
2023-05-01T16:00:41.032Z,75.26
2023-05-01T16:04:54.328Z,74.85
2023-05-01T16:09:06.892Z,74.79
2023-05-01T16:13:19.295Z,75.42
2023-05-01T16:17:45.184Z,76.45
2023-05-01T16:21:57.879Z,77.89
2023-05-01T16:26:10.608Z,77.49
2023-05-01T16:30:25.946Z,77.23
2023-05-01T16:34:40.309Z,79.37
2023-05-01T16:38:55.601Z,77.42
2023-05-01T16:43:08.014Z,77.17
2023-05-01T16:47:20.403Z,77.59
2023-05-01T16:51:33.027Z,78.38
2023-05-01T16:55:45.419Z,78.95
2023-05-01T16:59:58.026Z,79.04
2023-05-01T17:04:10.973Z,79.38
2023-05-01T17:08:23.439Z,79.66
2023-05-01T17:12:35.999Z,79.43
2023-05-01T17:16:50.400Z,80.15
2023-05-01T17:21:03.032Z,80.36
2023-05-01T17:25:15.495Z,80.18
2023-05-01T17:29:28.301Z,79.98
2023-05-01T17:33:40.714Z,80.45
2023-05-01T17:37:53.318Z,80.88
2023-05-01T17:42:05.790Z,81.74
2023-05-01T17:46:18.657Z,82.20
2023-05-01T17:50:31.102Z,83.60
2023-05-01T17:54:43.624Z,83.56
2023-05-01T17:58:56.159Z,84.09
2023-05-01T18:03:09.447Z,84.08
2023-05-01T18:07:22.384Z,83.99
2023-05-01T18:11:35.099Z,85.25
2023-05-01T18:15:49.385Z,86.08
2023-05-01T18:20:03.129Z,86.67
2023-05-01T18:24:15.599Z,87.03
2023-05-01T18:28:28.685Z,87.50
2023-05-01T18:32:48.371Z,87.11
2023-05-01T18:37:01.547Z,87.68
2023-05-01T18:41:13.986Z,87.43
2023-05-01T18:45:26.520Z,87.13
2023-05-01T18:49:38.981Z,86.73
2023-05-01T18:53:51.364Z,86.83
2023-05-01T18:58:03.877Z,86.36
2023-05-01T19:02:16.594Z,85.87
2023-05-01T19:06:29.487Z,84.85
2023-05-01T19:10:42.762Z,84.30
2023-05-01T19:14:55.084Z,83.92
2023-05-01T19:19:07.458Z,83.37
2023-05-01T19:23:19.953Z,83.45
2023-05-01T19:27:32.335Z,83.88
2023-05-01T19:31:44.825Z,83.41
2023-05-01T19:35:57.230Z,82.43
2023-05-01T19:40:10.685Z,82.56
2023-05-01T19:44:23.130Z,82.27
2023-05-01T19:48:35.612Z,82.57
2023-05-01T19:52:48.061Z,82.25
2023-05-01T19:57:00.430Z,81.37
2023-05-01T20:01:13.565Z,80.65
2023-05-01T20:05:28.533Z,80.43
2023-05-01T20:09:41.072Z,80.92
2023-05-01T20:13:53.600Z,82.33
2023-05-01T20:18:17.038Z,81.77
2023-05-01T20:22:29.502Z,81.57
2023-05-01T20:26:41.929Z,82.20
2023-05-01T20:30:54.482Z,82.88
2023-05-01T20:35:07.283Z,83.66
2023-05-01T20:39:19.673Z,84.26
2023-05-01T20:43:32.120Z,83.92
2023-05-01T20:47:44.580Z,83.61
2023-05-01T20:51:58.865Z,83.46
2023-05-01T20:56:11.618Z,83.51
2023-05-01T21:00:24.066Z,83.62
2023-05-01T21:04:38.262Z,83.80
2023-05-01T21:08:51.443Z,84.14
2023-05-01T21:13:03.939Z,84.44
2023-05-01T21:17:18.539Z,83.79
2023-05-01T21:21:31.228Z,83.77
2023-05-01T21:25:44.153Z,83.87
2023-05-01T21:30:01.264Z,84.07
2023-05-01T21:34:17.784Z,83.84
2023-05-01T21:38:31.484Z,85.05
2023-05-01T21:42:43.851Z,85.97
2023-05-01T21:46:58.473Z,86.14
2023-05-01T21:51:10.874Z,86.08
2023-05-01T21:55:26.262Z,85.72
2023-05-01T21:59:39.600Z,84.68
2023-05-01T22:03:52.067Z,84.38
2023-05-01T22:08:04.722Z,84.41
2023-05-01T22:12:17.144Z,83.82
2023-05-01T22:16:29.644Z,83.54
2023-05-01T22:20:42.120Z,83.31
2023-05-01T22:24:54.483Z,82.32
2023-05-01T22:29:07.075Z,82.69
2023-05-01T22:33:19.663Z,83.11
2023-05-01T22:37:32.089Z,83.31
2023-05-01T22:41:44.594Z,84.13
2023-05-01T22:45:57.246Z,84.71
2023-05-01T22:50:10.422Z,84.57
2023-05-01T22:54:22.841Z,85.24
2023-05-01T22:58:35.321Z,85.30
2023-05-01T23:02:47.767Z,84.48
2023-05-01T23:07:00.174Z,85.03
2023-05-01T23:11:18.346Z,84.93
2023-05-01T23:15:31.724Z,84.68
2023-05-01T23:19:45.923Z,85.25
2023-05-01T23:23:58.472Z,85.41
2023-05-01T23:28:12.341Z,85.16
2023-05-01T23:32:28.197Z,85.55
2023-05-01T23:36:44.043Z,85.27
2023-05-01T23:40:56.631Z,85.93
2023-05-01T23:45:09.887Z,86.34
2023-05-01T23:49:22.314Z,86.26
2023-05-01T23:53:34.729Z,86.29
2023-05-01T23:57:47.227Z,86.45
